Time;durP1;ratioP1;P1;durP2;ratioP2;P2;SDS_P1;SDS_P2;PMS_P1;PMS_P2;Temp;Humidity;BMP_temperature;BMP_pressure;BME280_temperature;BME280_humidity;BME280_pressure;Samples;Min_cycle;Max_cycle;Signal;HPM_P1;HPM_P2
2024/03/08 00:01:10;;;;;;;4.40;1.00;;;;;;;;;;4775227;30;20066;-84
2024/03/08 00:03:40;;;;;;;4.72;1.13;;;;;;;;;;4788531;29;20043;-84
2024/03/08 00:06:10;;;;;;;4.00;1.38;;;;;;;;;;4789968;29;20054;-83
2024/03/08 00:08:41;;;;;;;5.22;1.13;;;;;;;;;;4790969;29;20054;-81
2024/03/08 00:11:11;;;;;;;3.05;0.90;;;;;;;;;;4792114;29;20048;-82
2024/03/08 00:13:47;;;;;;;2.20;1.00;;;;;;;;;;4792151;29;20050;-82
2024/03/08 00:16:38;;;;;;;6.10;1.40;;;;;;;;;;4791918;29;20499;-83
2024/03/08 00:19:11;;;;;;;3.45;0.57;;;;;;;;;;4785392;29;20054;-82
2024/03/08 00:21:42;;;;;;;2.13;0.57;;;;;;;;;;4778959;29;20054;-80
2024/03/08 00:29:15;;;;;;;2.75;0.70;;;;;;;;;;4795299;29;20492;-82
2024/03/08 00:31:46;;;;;;;3.20;0.68;;;;;;;;;;4775163;29;20043;-83
2024/03/08 00:34:16;;;;;;;7.25;1.15;;;;;;;;;;4796302;29;20418;-83
2024/03/08 00:36:47;;;;;;;2.45;0.65;;;;;;;;;;4807008;29;20054;-82
2024/03/08 00:39:21;;;;;;;6.05;1.58;;;;;;;;;;4797261;29;20043;-83
2024/03/08 00:42:06;;;;;;;1.65;0.95;;;;;;;;;;4787065;29;20055;-82
2024/03/08 00:44:37;;;;;;;2.42;0.68;;;;;;;;;;4786704;29;20518;-82
2024/03/08 00:47:08;;;;;;;4.60;0.90;;;;;;;;;;4793882;29;20050;-82
2024/03/08 00:49:41;;;;;;;1.67;0.75;;;;;;;;;;4788216;29;20051;-83
2024/03/08 00:52:12;;;;;;;4.70;0.88;;;;;;;;;;4781524;30;20068;-82
2024/03/08 00:54:43;;;;;;;3.83;0.80;;;;;;;;;;4769769;30;20055;-81
2024/03/08 00:57:15;;;;;;;4.25;1.00;;;;;;;;;;4770070;30;20063;-81
2024/03/08 00:59:45;;;;;;;1.98;0.60;;;;;;;;;;4770620;30;20063;-85
2024/03/08 01:02:18;;;;;;;1.50;0.52;;;;;;;;;;4786795;29;20066;-82
2024/03/08 01:04:49;;;;;;;1.80;0.70;;;;;;;;;;4791449;29;20050;-83
2024/03/08 01:07:19;;;;;;;2.72;0.80;;;;;;;;;;4792350;29;20058;-82
2024/03/08 01:09:49;;;;;;;2.88;0.77;;;;;;;;;;4774716;29;20055;-81
2024/03/08 01:12:20;;;;;;;2.17;0.93;;;;;;;;;;4770044;29;20048;-84
2024/03/08 01:14:50;;;;;;;2.58;0.90;;;;;;;;;;4786544;30;20062;-82
2024/03/08 01:17:20;;;;;;;6.82;0.70;;;;;;;;;;4786105;30;20514;-85
2024/03/08 01:19:50;;;;;;;2.55;0.80;;;;;;;;;;4786549;30;20047;-82
2024/03/08 01:22:20;;;;;;;2.22;0.70;;;;;;;;;;4785758;30;20050;-83
2024/03/08 01:24:50;;;;;;;2.42;0.60;;;;;;;;;;4791198;29;20051;-82
2024/03/08 01:27:20;;;;;;;3.50;0.70;;;;;;;;;;4791624;29;20542;-85
2024/03/08 01:29:50;;;;;;;2.08;1.00;;;;;;;;;;4783048;29;20122;-82
2024/03/08 01:32:22;;;;;;;2.17;1.30;;;;;;;;;;4793103;29;20068;-86
2024/03/08 01:34:54;;;;;;;5.85;0.85;;;;;;;;;;4782688;29;20410;-83
2024/03/08 01:37:25;;;;;;;3.22;1.10;;;;;;;;;;4802722;29;20665;-81
2024/03/08 01:39:57;;;;;;;1.60;0.65;;;;;;;;;;4804441;29;20053;-82
2024/03/08 01:42:27;;;;;;;2.58;0.70;;;;;;;;;;4785941;29;20062;-84
2024/03/08 01:44:57;;;;;;;3.08;0.80;;;;;;;;;;4786192;29;20058;-82
2024/03/08 01:47:28;;;;;;;2.28;0.73;;;;;;;;;;4790521;29;20495;-80
2024/03/08 01:50:03;;;;;;;2.10;0.90;;;;;;;;;;4790300;29;20058;-86
2024/03/08 01:52:35;;;;;;;2.70;0.90;;;;;;;;;;4787835;30;20051;-82
2024/03/08 01:55:07;;;;;;;1.67;1.15;;;;;;;;;;4788461;30;20058;-81
2024/03/08 01:57:38;;;;;;;1.67;0.80;;;;;;;;;;4787489;30;20055;-82
2024/03/08 02:00:10;;;;;;;13.63;1.73;;;;;;;;;;4787620;30;20055;-84
2024/03/08 02:02:44;;;;;;;1.83;1.00;;;;;;;;;;4786929;30;20047;-84
2024/03/08 02:05:17;;;;;;;2.42;0.85;;;;;;;;;;4787335;30;20059;-85
2024/03/08 02:07:48;;;;;;;4.47;1.05;;;;;;;;;;4772623;29;20051;-81
2024/03/08 02:10:18;;;;;;;2.30;0.90;;;;;;;;;;4775224;30;20530;-82
2024/03/08 02:12:48;;;;;;;3.25;0.90;;;;;;;;;;4791750;30;20518;-81
2024/03/08 02:15:19;;;;;;;4.75;1.10;;;;;;;;;;4791413;30;20051;-83
2024/03/08 02:17:49;;;;;;;2.05;0.90;;;;;;;;;;4790565;30;20059;-85
2024/03/08 02:20:20;;;;;;;1.70;0.73;;;;;;;;;;4790731;30;20487;-85
2024/03/08 02:22:50;;;;;;;7.22;0.90;;;;;;;;;;4791402;30;20051;-81
2024/03/08 02:25:21;;;;;;;8.82;1.80;;;;;;;;;;4775204;30;20066;-82
2024/03/08 02:27:51;;;;;;;3.83;1.10;;;;;;;;;;4791457;30;20054;-82
2024/03/08 02:30:22;;;;;;;1.10;0.68;;;;;;;;;;4791848;30;20055;-81
2024/03/08 02:32:52;;;;;;;3.67;1.73;;;;;;;;;;4761249;30;20340;-84
2024/03/08 02:35:22;;;;;;;2.22;0.82;;;;;;;;;;4790763;30;20396;-84
2024/03/08 02:37:53;;;;;;;5.43;0.90;;;;;;;;;;4791252;30;20051;-83
2024/03/08 02:40:23;;;;;;;1.50;0.80;;;;;;;;;;4790268;30;20072;-84
2024/03/08 02:42:53;;;;;;;1.83;0.90;;;;;;;;;;4790250;30;20503;-82
2024/03/08 02:45:23;;;;;;;1.70;0.80;;;;;;;;;;4790983;30;20142;-84
2024/03/08 02:47:55;;;;;;;2.88;1.08;;;;;;;;;;4790388;30;20063;-83
2024/03/08 02:50:26;;;;;;;1.70;1.08;;;;;;;;;;4791035;30;20364;-80
2024/03/08 02:52:57;;;;;;;3.50;1.00;;;;;;;;;;4791422;30;20507;-81
2024/03/08 02:55:27;;;;;;;4.20;1.20;;;;;;;;;;4790868;30;20051;-81
2024/03/08 02:57:57;;;;;;;2.28;1.30;;;;;;;;;;4790706;30;20384;-81
2024/03/08 03:00:27;;;;;;;3.65;1.10;;;;;;;;;;4790244;30;20055;-82
2024/03/08 03:03:02;;;;;;;4.65;1.30;;;;;;;;;;4790153;30;20059;-83
2024/03/08 03:05:36;;;;;;;2.15;1.00;;;;;;;;;;4791032;30;20047;-82
2024/03/08 03:08:08;;;;;;;1.30;0.95;;;;;;;;;;4790625;30;20043;-82
2024/03/08 03:10:39;;;;;;;2.80;1.05;;;;;;;;;;4790745;30;20055;-84
2024/03/08 03:13:09;;;;;;;3.53;0.90;;;;;;;;;;4790967;30;20055;-81
2024/03/08 03:15:41;;;;;;;2.50;1.17;;;;;;;;;;4789408;30;20062;-85
2024/03/08 03:18:12;;;;;;;5.30;1.17;;;;;;;;;;4789715;30;20518;-82
2024/03/08 03:20:42;;;;;;;4.15;1.30;;;;;;;;;;4788754;29;20066;-82
2024/03/08 03:23:20;;;;;;;2.70;1.00;;;;;;;;;;4790494;30;20062;-81
2024/03/08 03:25:52;;;;;;;8.55;1.63;;;;;;;;;;4774480;30;20063;-81
2024/03/08 03:28:23;;;;;;;3.53;1.30;;;;;;;;;;4774174;30;20076;-80
2024/03/08 03:30:58;;;;;;;1.90;1.13;;;;;;;;;;4789169;30;20508;-80
2024/03/08 03:33:29;;;;;;;3.72;1.08;;;;;;;;;;4790589;30;20211;-81
2024/03/08 03:35:59;;;;;;;3.50;1.40;;;;;;;;;;4789448;30;20069;-81
2024/03/08 03:38:29;;;;;;;2.50;1.20;;;;;;;;;;4789955;30;20495;-82
2024/03/08 03:41:07;;;;;;;3.13;1.20;;;;;;;;;;4788942;30;20066;-82
2024/03/08 03:43:38;;;;;;;2.75;1.02;;;;;;;;;;4790216;30;20603;-80
2024/03/08 03:46:10;;;;;;;7.43;1.45;;;;;;;;;;4790004;30;20047;-85
2024/03/08 03:48:42;;;;;;;5.32;1.20;;;;;;;;;;4789755;30;20050;-81
2024/03/08 03:51:15;;;;;;;12.20;1.40;;;;;;;;;;4789903;30;20051;-83
2024/03/08 03:53:45;;;;;;;5.15;1.50;;;;;;;;;;4788589;30;20059;-81
2024/03/08 03:56:15;;;;;;;4.60;1.30;;;;;;;;;;4790430;30;20051;-82
2024/03/08 03:58:47;;;;;;;3.45;1.77;;;;;;;;;;4789870;30;20048;-81
2024/03/08 04:01:17;;;;;;;4.47;1.13;;;;;;;;;;4789568;30;20055;-80
2024/03/08 04:03:47;;;;;;;4.50;1.20;;;;;;;;;;4789209;30;20066;-84
2024/03/08 04:06:17;;;;;;;3.30;1.50;;;;;;;;;;4758782;30;20070;-81
2024/03/08 04:08:47;;;;;;;2.10;1.30;;;;;;;;;;4788907;30;20063;-81
2024/03/08 04:11:17;;;;;;;5.18;1.30;;;;;;;;;;4777837;29;20065;-83
2024/03/08 04:13:48;;;;;;;2.85;1.20;;;;;;;;;;4807384;29;20114;-84
2024/03/08 04:16:18;;;;;;;6.53;1.77;;;;;;;;;;4807089;29;20417;-80
2024/03/08 04:18:49;;;;;;;5.25;1.33;;;;;;;;;;4807550;29;20495;-80
2024/03/08 04:21:20;;;;;;;6.60;1.30;;;;;;;;;;4807773;29;20043;-79
2024/03/08 04:23:50;;;;;;;3.08;1.38;;;;;;;;;;4807570;29;20482;-81
2024/03/08 04:26:20;;;;;;;2.95;1.13;;;;;;;;;;4807443;29;20062;-80
2024/03/08 04:28:50;;;;;;;5.53;1.38;;;;;;;;;;4807340;29;20130;-81
2024/03/08 04:31:21;;;;;;;4.03;1.42;;;;;;;;;;4806762;29;20054;-83
2024/03/08 04:33:52;;;;;;;3.20;1.50;;;;;;;;;;4807302;29;20055;-86
2024/03/08 04:36:23;;;;;;;4.38;1.45;;;;;;;;;;4806290;29;20059;-83
2024/03/08 04:38:53;;;;;;;6.90;1.60;;;;;;;;;;4807317;29;20050;-82
2024/03/08 04:41:24;;;;;;;3.33;1.38;;;;;;;;;;4806328;29;20050;-81
2024/03/08 04:43:57;;;;;;;6.80;1.63;;;;;;;;;;4806447;29;20055;-85
2024/03/08 04:46:29;;;;;;;5.07;1.42;;;;;;;;;;4807013;29;20475;-82
2024/03/08 04:48:59;;;;;;;3.50;1.50;;;;;;;;;;4807059;29;20210;-82
2024/03/08 04:51:30;;;;;;;7.85;1.55;;;;;;;;;;4807082;29;20060;-80
2024/03/08 04:54:04;;;;;;;8.38;1.80;;;;;;;;;;4806936;29;20054;-80
2024/03/08 04:56:36;;;;;;;7.35;1.70;;;;;;;;;;4806551;29;20046;-81
2024/03/08 04:59:08;;;;;;;6.00;1.70;;;;;;;;;;4806981;29;20050;-82
2024/03/08 05:01:39;;;;;;;2.50;1.40;;;;;;;;;;4788461;29;20455;-81
2024/03/08 05:04:10;;;;;;;6.18;1.80;;;;;;;;;;4785621;30;20066;-84
2024/03/08 05:06:40;;;;;;;3.53;1.60;;;;;;;;;;4784860;30;20060;-82
2024/03/08 05:12:08;;;;;;;6.10;1.20;;;;;;;;;;4788588;29;20050;-83
2024/03/08 05:14:42;;;;;;;3.85;1.60;;;;;;;;;;4788172;30;20051;-82
2024/03/08 05:17:12;;;;;;;7.85;1.50;;;;;;;;;;4777141;30;20405;-82
2024/03/08 05:19:42;;;;;;;5.70;1.50;;;;;;;;;;4788135;30;20047;-83
2024/03/08 05:22:13;;;;;;;10.93;1.50;;;;;;;;;;4787597;30;20061;-82
2024/03/08 05:24:44;;;;;;;10.18;1.70;;;;;;;;;;4788586;30;20058;-82
2024/03/08 05:27:16;;;;;;;5.18;1.80;;;;;;;;;;4788561;30;20503;-79
2024/03/08 05:29:47;;;;;;;4.20;1.83;;;;;;;;;;4788522;30;20055;-83
2024/03/08 05:32:17;;;;;;;13.98;1.90;;;;;;;;;;4771955;30;20062;-81
2024/03/08 05:34:47;;;;;;;5.13;1.52;;;;;;;;;;4787700;30;20051;-80
2024/03/08 05:37:20;;;;;;;2.50;1.30;;;;;;;;;;4787608;30;20059;-81
2024/03/08 05:39:50;;;;;;;4.82;1.50;;;;;;;;;;4788326;30;20048;-80
2024/03/08 05:42:20;;;;;;;4.90;1.38;;;;;;;;;;4771966;29;20523;-83
2024/03/08 05:44:52;;;;;;;5.32;1.33;;;;;;;;;;4788421;30;20055;-83
2024/03/08 05:47:23;;;;;;;2.97;1.50;;;;;;;;;;4788307;30;20483;-82
2024/03/08 05:49:56;;;;;;;4.90;1.73;;;;;;;;;;4786950;30;20560;-82
2024/03/08 05:52:26;;;;;;;4.95;1.40;;;;;;;;;;4787993;30;20077;-82
2024/03/08 05:54:56;;;;;;;4.72;1.40;;;;;;;;;;4772218;30;20047;-84
2024/03/08 05:57:26;;;;;;;10.38;2.13;;;;;;;;;;4788006;30;20055;-82
2024/03/08 05:59:58;;;;;;;2.85;1.30;;;;;;;;;;4790067;30;20062;-82
2024/03/08 06:02:28;;;;;;;3.50;1.80;;;;;;;;;;4790558;30;20059;-84
2024/03/08 06:05:02;;;;;;;6.28;2.05;;;;;;;;;;4791537;30;20055;-82
2024/03/08 06:07:32;;;;;;;7.15;1.58;;;;;;;;;;4783428;30;20059;-83
2024/03/08 06:10:06;;;;;;;10.85;2.00;;;;;;;;;;4805681;30;20055;-78
2024/03/08 06:12:41;;;;;;;7.40;1.85;;;;;;;;;;4803183;30;20078;-79
2024/03/08 06:15:15;;;;;;;4.82;2.05;;;;;;;;;;4800884;30;20052;-79
2024/03/08 06:17:48;;;;;;;11.27;2.65;;;;;;;;;;4801456;30;20051;-80
2024/03/08 06:20:20;;;;;;;7.63;1.63;;;;;;;;;;4789111;30;20039;-82
2024/03/08 06:22:51;;;;;;;3.42;1.75;;;;;;;;;;4787349;30;20059;-81
2024/03/08 06:25:22;;;;;;;7.20;1.90;;;;;;;;;;4788117;30;20051;-82
2024/03/08 06:27:52;;;;;;;5.35;1.67;;;;;;;;;;4788298;30;20047;-84
2024/03/08 06:30:25;;;;;;;11.63;1.90;;;;;;;;;;4787239;30;20514;-82
2024/03/08 06:32:56;;;;;;;4.40;2.25;;;;;;;;;;4787084;30;20058;-82
2024/03/08 06:35:26;;;;;;;5.95;1.75;;;;;;;;;;4786864;30;20059;-82
2024/03/08 06:37:57;;;;;;;3.22;2.22;;;;;;;;;;4787957;30;20437;-84
2024/03/08 06:40:28;;;;;;;8.40;1.75;;;;;;;;;;4786809;30;20043;-81
2024/03/08 06:42:58;;;;;;;4.78;1.52;;;;;;;;;;4787932;30;20055;-81
2024/03/08 06:45:28;;;;;;;13.20;2.38;;;;;;;;;;4786919;30;20063;-81
2024/03/08 06:48:00;;;;;;;6.25;1.85;;;;;;;;;;4786583;30;20059;-82
2024/03/08 06:50:32;;;;;;;4.63;1.60;;;;;;;;;;4786652;30;20487;-82
2024/03/08 06:53:04;;;;;;;6.47;1.73;;;;;;;;;;4787872;30;20056;-84
2024/03/08 06:55:36;;;;;;;6.28;1.90;;;;;;;;;;4772865;30;20063;-81
2024/03/08 06:58:07;;;;;;;6.22;2.03;;;;;;;;;;4775617;30;20058;-81
2024/03/08 07:00:38;;;;;;;8.57;1.92;;;;;;;;;;4791188;30;20368;-81
2024/03/08 07:03:12;;;;;;;4.63;1.50;;;;;;;;;;4790160;30;20070;-81
2024/03/08 07:05:42;;;;;;;7.55;1.50;;;;;;;;;;4790719;30;20074;-82
2024/03/08 07:08:14;;;;;;;6.68;1.90;;;;;;;;;;4790583;30;20051;-81
2024/03/08 07:10:45;;;;;;;3.88;1.80;;;;;;;;;;4790481;30;20051;-81
2024/03/08 07:13:16;;;;;;;3.85;1.70;;;;;;;;;;4789691;30;20070;-81
2024/03/08 07:15:47;;;;;;;3.85;1.65;;;;;;;;;;4790518;30;20047;-81
2024/03/08 07:18:16;;;;;;;8.48;1.80;;;;;;;;;;4790629;30;20491;-81
2024/03/08 07:20:47;;;;;;;5.20;1.80;;;;;;;;;;4790584;30;20059;-83
2024/03/08 07:26:06;;;;;;;5.40;1.83;;;;;;;;;;4790175;30;20063;-81
2024/03/08 07:28:36;;;;;;;5.15;1.60;;;;;;;;;;4790166;30;20070;-81
2024/03/08 07:31:23;;;;;;;4.28;1.85;;;;;;;;;;4790839;30;20507;-81
2024/03/08 07:33:53;;;;;;;10.18;1.63;;;;;;;;;;4790782;30;20067;-81
2024/03/08 07:36:24;;;;;;;6.18;1.58;;;;;;;;;;4789116;30;20082;-81
2024/03/08 07:38:54;;;;;;;6.15;1.77;;;;;;;;;;4790172;30;20051;-80
2024/03/08 07:41:24;;;;;;;9.10;2.30;;;;;;;;;;4788797;30;20066;-81
2024/03/08 07:43:54;;;;;;;5.40;1.80;;;;;;;;;;4789324;30;20059;-82
2024/03/08 07:46:24;;;;;;;4.68;1.80;;;;;;;;;;4773772;30;20503;-82
2024/03/08 07:48:58;;;;;;;8.38;1.90;;;;;;;;;;4789843;30;20059;-83
2024/03/08 07:51:30;;;;;;;8.10;2.33;;;;;;;;;;4790279;30;20404;-82
2024/03/08 07:54:04;;;;;;;3.88;1.50;;;;;;;;;;4790227;30;20051;-85
2024/03/08 07:56:35;;;;;;;5.63;1.70;;;;;;;;;;4788857;30;20423;-82
2024/03/08 07:59:07;;;;;;;6.57;1.50;;;;;;;;;;4788684;30;20055;-82
2024/03/08 08:01:39;;;;;;;5.10;1.75;;;;;;;;;;4786442;29;20055;-82
2024/03/08 08:04:12;;;;;;;6.15;1.70;;;;;;;;;;4788675;30;20051;-80
2024/03/08 08:06:42;;;;;;;10.25;2.22;;;;;;;;;;4789006;29;20062;-84
2024/03/08 08:09:15;;;;;;;11.55;2.05;;;;;;;;;;4789674;29;20415;-81
2024/03/08 08:11:49;;;;;;;8.80;1.83;;;;;;;;;;4784353;30;20046;-81
2024/03/08 08:14:23;;;;;;;7.97;1.80;;;;;;;;;;4789972;30;20055;-84
2024/03/08 08:16:55;;;;;;;6.18;1.67;;;;;;;;;;4788140;30;20420;-82
2024/03/08 08:19:27;;;;;;;6.35;3.03;;;;;;;;;;4788834;30;20511;-85
2024/03/08 08:21:57;;;;;;;6.25;1.70;;;;;;;;;;4789182;29;20055;-83
2024/03/08 08:24:28;;;;;;;6.40;1.70;;;;;;;;;;4772798;30;20063;-81
2024/03/08 08:26:58;;;;;;;4.50;2.00;;;;;;;;;;4783740;30;20066;-81
2024/03/08 08:29:28;;;;;;;6.63;1.70;;;;;;;;;;4787600;29;20047;-84
2024/03/08 08:32:01;;;;;;;2.25;1.40;;;;;;;;;;4772335;30;20055;-81
2024/03/08 08:34:32;;;;;;;4.55;2.03;;;;;;;;;;4788460;30;20058;-81
2024/03/08 08:37:05;;;;;;;5.15;1.52;;;;;;;;;;4789430;30;20055;-83
2024/03/08 08:39:34;;;;;;;4.78;2.10;;;;;;;;;;4773006;30;20059;-83
2024/03/08 08:42:05;;;;;;;6.00;1.70;;;;;;;;;;4788342;30;20488;-81
2024/03/08 08:44:37;;;;;;;2.67;1.35;;;;;;;;;;4788518;30;20052;-81
2024/03/08 08:47:07;;;;;;;5.00;1.67;;;;;;;;;;4788694;30;20066;-80
2024/03/08 08:49:46;;;;;;;5.25;2.25;;;;;;;;;;4788886;30;20348;-80
2024/03/08 08:52:18;;;;;;;9.05;1.70;;;;;;;;;;4788111;30;20086;-80
2024/03/08 08:54:50;;;;;;;7.32;1.50;;;;;;;;;;4788896;30;20538;-82
2024/03/08 08:57:22;;;;;;;5.78;1.63;;;;;;;;;;4788012;30;20583;-80
2024/03/08 08:59:52;;;;;;;2.17;1.25;;;;;;;;;;4787727;30;20058;-81
2024/03/08 09:02:22;;;;;;;4.63;1.42;;;;;;;;;;4787546;30;20062;-81
2024/03/08 09:04:53;;;;;;;3.63;1.52;;;;;;;;;;4787952;30;20066;-83
2024/03/08 09:07:24;;;;;;;4.22;1.65;;;;;;;;;;4788606;30;20047;-81
2024/03/08 09:09:57;;;;;;;3.53;1.80;;;;;;;;;;4788841;30;20419;-81
2024/03/08 09:12:44;;;;;;;10.30;1.80;;;;;;;;;;4788598;30;20066;-80
2024/03/08 09:15:14;;;;;;;4.72;1.92;;;;;;;;;;4787849;30;20055;-83
2024/03/08 09:17:45;;;;;;;11.43;1.70;;;;;;;;;;4787588;30;20525;-81
2024/03/08 09:20:17;;;;;;;6.13;1.95;;;;;;;;;;4788649;30;20068;-81
2024/03/08 09:22:47;;;;;;;8.35;1.83;;;;;;;;;;4788632;30;20052;-81
2024/03/08 09:25:17;;;;;;;11.45;2.80;;;;;;;;;;4788313;30;20059;-83
2024/03/08 09:27:49;;;;;;;3.85;1.73;;;;;;;;;;4773142;30;20047;-81
2024/03/08 09:30:21;;;;;;;7.32;1.63;;;;;;;;;;4787203;30;20056;-86
2024/03/08 09:32:51;;;;;;;7.75;1.75;;;;;;;;;;4787270;30;20059;-82
2024/03/08 09:35:24;;;;;;;8.23;2.00;;;;;;;;;;4788357;30;20055;-82
2024/03/08 09:37:55;;;;;;;9.20;1.80;;;;;;;;;;4788368;30;20058;-81
2024/03/08 09:40:27;;;;;;;4.75;1.70;;;;;;;;;;4788738;30;20059;-82
2024/03/08 09:43:11;;;;;;;5.40;1.42;;;;;;;;;;4788399;30;20067;-81
2024/03/08 09:45:43;;;;;;;6.35;1.42;;;;;;;;;;4788301;30;20415;-81
2024/03/08 09:48:14;;;;;;;5.63;1.63;;;;;;;;;;4788497;30;20059;-82
2024/03/08 09:50:47;;;;;;;5.63;1.70;;;;;;;;;;4788390;30;20073;-83
2024/03/08 09:53:18;;;;;;;3.47;2.00;;;;;;;;;;4772317;30;20403;-80
2024/03/08 09:55:49;;;;;;;8.65;1.85;;;;;;;;;;4771328;30;20065;-81
2024/03/08 09:59:14;;;;;;;5.78;1.50;;;;;;;;;;4771482;30;20051;-81
2024/03/08 10:01:18;;;;;;;5.07;1.30;;;;;;;;;;4786166;30;20067;-80
2024/03/08 10:03:49;;;;;;;5.65;1.50;;;;;;;;;;4787882;30;20051;-82
2024/03/08 10:06:24;;;;;;;3.88;1.92;;;;;;;;;;4788212;30;20055;-84
2024/03/08 10:08:55;;;;;;;1.85;1.02;;;;;;;;;;4788527;30;20039;-82
2024/03/08 10:11:26;;;;;;;3.70;1.10;;;;;;;;;;4768846;30;20059;-82
2024/03/08 10:13:58;;;;;;;5.30;1.50;;;;;;;;;;4783580;30;20050;-80
2024/03/08 10:16:28;;;;;;;4.78;1.13;;;;;;;;;;4786454;30;20055;-84
2024/03/08 10:19:00;;;;;;;2.72;1.17;;;;;;;;;;4786900;30;20443;-83
2024/03/08 10:21:33;;;;;;;4.25;1.27;;;;;;;;;;4779623;30;20052;-81
2024/03/08 10:24:05;;;;;;;2.95;1.25;;;;;;;;;;4786687;30;20078;-81
2024/03/08 10:26:38;;;;;;;3.75;1.17;;;;;;;;;;4770377;30;20069;-82
2024/03/08 10:29:08;;;;;;;3.60;1.05;;;;;;;;;;4786953;29;20051;-81
2024/03/08 10:31:39;;;;;;;2.35;1.42;;;;;;;;;;4774969;30;20411;-80
2024/03/08 10:34:10;;;;;;;3.35;1.20;;;;;;;;;;4790268;30;20062;-81
2024/03/08 10:36:41;;;;;;;2.90;1.05;;;;;;;;;;4789630;30;20054;-81
2024/03/08 10:39:25;;;;;;;3.40;1.10;;;;;;;;;;4790033;30;20048;-82
2024/03/08 10:42:02;;;;;;;4.05;1.30;;;;;;;;;;4790592;30;20513;-81
2024/03/08 10:44:54;;;;;;;5.80;1.23;;;;;;;;;;4782866;30;20043;-82
2024/03/08 10:47:32;;;;;;;4.97;1.35;;;;;;;;;;4789743;30;20519;-82
2024/03/08 10:50:22;;;;;;;3.55;0.80;;;;;;;;;;4789979;30;20056;-80
2024/03/08 10:52:53;;;;;;;3.83;0.93;;;;;;;;;;4789107;29;20051;-79
2024/03/08 10:55:26;;;;;;;5.20;1.13;;;;;;;;;;4792419;29;20088;-80
2024/03/08 10:57:57;;;;;;;3.67;1.33;;;;;;;;;;4794011;29;20047;-80
2024/03/08 11:00:27;;;;;;;2.72;0.95;;;;;;;;;;4806541;29;20059;-80
2024/03/08 11:02:58;;;;;;;1.95;1.02;;;;;;;;;;4806213;29;20047;-81
2024/03/08 11:05:40;;;;;;;3.47;0.90;;;;;;;;;;4798215;29;20066;-80
2024/03/08 11:08:18;;;;;;;1.17;0.80;;;;;;;;;;4774068;30;20051;-80
2024/03/08 11:10:56;;;;;;;1.75;1.10;;;;;;;;;;4789814;30;20352;-81
2024/03/08 11:13:33;;;;;;;;;;;;;;;;;;4790399;30;20051;-81
2024/03/08 11:16:11;;;;;;;2.70;1.05;;;;;;;;;;4800313;29;19925;-80
2024/03/08 11:18:41;;;;;;;;;;;;;;;;;;4800925;29;20062;-82
2024/03/08 11:21:12;;;;;;;10.93;1.00;;;;;;;;;;4774966;29;19933;-81
2024/03/08 11:23:43;;;;;;;5.40;0.90;;;;;;;;;;4807576;29;20050;-80
2024/03/08 11:26:24;;;;;;;11.23;1.02;;;;;;;;;;4799162;29;20047;-82
2024/03/08 11:28:55;;;;;;;5.47;0.80;;;;;;;;;;4789713;29;20062;-80
2024/03/08 11:31:28;;;;;;;4.00;1.33;;;;;;;;;;4792887;29;20514;-83
2024/03/08 11:33:59;;;;;;;1.35;0.70;;;;;;;;;;4800852;29;20068;-80
2024/03/08 11:36:31;;;;;;;3.75;0.63;;;;;;;;;;4790105;30;20151;-81
2024/03/08 11:39:09;;;;;;;;;;;;;;;;;;4789293;30;20051;-81
2024/03/08 11:41:41;;;;;;;1.42;0.60;;;;;;;;;;4787501;29;19944;-81
2024/03/08 11:44:21;;;;;;;1.73;0.73;;;;;;;;;;4789554;30;20058;-81
2024/03/08 11:46:51;;;;;;;1.73;0.68;;;;;;;;;;4781925;30;20051;-81
2024/03/08 11:49:22;;;;;;;1.52;0.82;;;;;;;;;;4788730;30;20058;-82
2024/03/08 11:51:53;;;;;;;2.38;0.80;;;;;;;;;;4773301;30;20047;-80
2024/03/08 11:54:24;;;;;;;3.13;0.80;;;;;;;;;;4789312;30;20058;-81
2024/03/08 11:56:54;;;;;;;3.55;0.88;;;;;;;;;;4775590;30;20047;-82
2024/03/08 11:59:26;;;;;;;1.67;1.42;;;;;;;;;;4788802;30;20061;-80
2024/03/08 12:02:05;;;;;;;1.10;0.70;;;;;;;;;;4788906;30;20048;-81
2024/03/08 12:04:36;;;;;;;1.95;0.90;;;;;;;;;;4789354;30;20054;-81
2024/03/08 12:07:11;;;;;;;1.67;0.77;;;;;;;;;;4788338;29;20051;-81
2024/03/08 12:09:46;;;;;;;4.70;0.88;;;;;;;;;;4789213;29;20143;-82
2024/03/08 12:12:17;;;;;;;2.50;0.90;;;;;;;;;;4789779;29;20046;-80
2024/03/08 12:14:47;;;;;;;2.28;0.65;;;;;;;;;;4792364;29;20054;-82
2024/03/08 12:17:18;;;;;;;4.00;0.88;;;;;;;;;;4794630;29;20070;-82
2024/03/08 12:19:48;;;;;;;31.77;1.98;;;;;;;;;;4790288;29;20047;-83
2024/03/08 12:22:19;;;;;;;3.17;1.02;;;;;;;;;;4789402;30;20056;-84
2024/03/08 12:25:12;;;;;;;3.22;0.98;;;;;;;;;;4796950;29;20062;-83
2024/03/08 12:27:43;;;;;;;1.90;0.80;;;;;;;;;;4799888;29;20507;-84
2024/03/08 12:30:28;;;;;;;2.22;1.27;;;;;;;;;;4805762;29;20047;-81
2024/03/08 12:33:00;;;;;;;2.67;1.10;;;;;;;;;;4799181;29;20511;-81
2024/03/08 12:35:32;;;;;;;2.15;0.90;;;;;;;;;;4792030;29;20055;-81
2024/03/08 12:38:03;;;;;;;2.33;0.90;;;;;;;;;;4794027;29;20043;-82
2024/03/08 12:40:40;;;;;;;2.42;1.30;;;;;;;;;;4800319;29;20410;-84
2024/03/08 12:43:12;;;;;;;;;;;;;;;;;;4805024;29;20066;-83
2024/03/08 12:45:42;;;;;;;1.88;0.80;;;;;;;;;;4806632;29;20381;-85
2024/03/08 12:48:16;;;;;;;1.85;1.02;;;;;;;;;;4790526;29;20054;-82
2024/03/08 12:50:54;;;;;;;4.57;1.20;;;;;;;;;;4788894;29;20044;-84
2024/03/08 12:53:28;;;;;;;2.45;1.10;;;;;;;;;;4801412;29;20051;-85
2024/03/08 12:55:59;;;;;;;1.40;1.00;;;;;;;;;;4803203;29;20051;-82
2024/03/08 12:58:29;;;;;;;2.88;1.15;;;;;;;;;;4807710;29;20078;-84
2024/03/08 13:01:00;;;;;;;3.25;0.82;;;;;;;;;;4791957;29;20474;-83
2024/03/08 13:03:31;;;;;;;1.83;0.80;;;;;;;;;;4789030;30;20059;-79
2024/03/08 13:06:09;;;;;;;4.50;1.30;;;;;;;;;;4815923;29;20047;-81
2024/03/08 13:08:43;;;;;;;3.13;1.30;;;;;;;;;;4811107;29;20062;-79
2024/03/08 13:11:15;;;;;;;3.40;1.92;;;;;;;;;;4806752;29;20043;-79
2024/03/08 13:13:46;;;;;;;4.50;1.52;;;;;;;;;;4796707;29;20066;-82
2024/03/08 13:16:18;;;;;;;2.92;1.42;;;;;;;;;;4787870;29;20047;-82
2024/03/08 13:18:49;;;;;;;5.00;1.58;;;;;;;;;;4801145;29;20047;-83
2024/03/08 13:21:24;;;;;;;2.63;1.30;;;;;;;;;;4788480;29;20376;-83
2024/03/08 13:23:55;;;;;;;3.80;1.50;;;;;;;;;;4787191;30;20047;-82
2024/03/08 13:26:30;;;;;;;3.45;1.40;;;;;;;;;;4781682;29;20043;-82
2024/03/08 13:29:00;;;;;;;3.10;1.30;;;;;;;;;;4791159;29;20043;-82
2024/03/08 13:31:31;;;;;;;3.22;1.67;;;;;;;;;;4784015;29;20068;-82
2024/03/08 13:34:05;;;;;;;4.05;1.33;;;;;;;;;;4785978;30;20532;-80
2024/03/08 13:36:39;;;;;;;;;;;;;;;;;;4787386;30;20066;-82
2024/03/08 13:39:15;;;;;;;4.35;2.03;;;;;;;;;;4786139;30;20060;-82
2024/03/08 13:41:45;;;;;;;3.97;1.35;;;;;;;;;;4775665;30;20055;-83
2024/03/08 13:44:17;;;;;;;3.63;1.40;;;;;;;;;;4786191;29;20060;-83
2024/03/08 13:46:50;;;;;;;2.70;1.30;;;;;;;;;;4795085;29;20076;-82
2024/03/08 13:49:22;;;;;;;4.25;1.40;;;;;;;;;;4787565;29;20043;-82
2024/03/08 13:51:54;;;;;;;2.45;1.30;;;;;;;;;;4788541;29;20054;-82
2024/03/08 13:54:25;;;;;;;3.25;1.60;;;;;;;;;;4796177;29;20058;-82
2024/03/08 13:56:55;;;;;;;7.13;1.50;;;;;;;;;;4792816;29;20505;-81
2024/03/08 13:59:29;;;;;;;4.35;1.33;;;;;;;;;;4793577;29;20050;-82
2024/03/08 14:02:03;;;;;;;6.43;1.73;;;;;;;;;;4792749;29;20069;-82
2024/03/08 14:04:34;;;;;;;3.17;1.40;;;;;;;;;;4787564;29;20058;-83
2024/03/08 14:07:08;;;;;;;5.00;1.55;;;;;;;;;;4786075;29;20503;-82
2024/03/08 14:09:42;;;;;;;3.97;1.27;;;;;;;;;;4791841;29;20051;-81
2024/03/08 14:12:13;;;;;;;4.30;1.60;;;;;;;;;;4787477;29;20070;-80
2024/03/08 14:14:44;;;;;;;4.97;2.08;;;;;;;;;;4799148;29;20434;-81
2024/03/08 14:17:17;;;;;;;4.18;1.50;;;;;;;;;;4769148;30;20071;-81
2024/03/08 14:19:48;;;;;;;3.55;1.73;;;;;;;;;;4789114;29;20055;-81
2024/03/08 14:22:19;;;;;;;3.88;1.50;;;;;;;;;;4797502;29;20050;-82
2024/03/08 14:24:51;;;;;;;4.70;1.30;;;;;;;;;;4779527;30;20051;-82
2024/03/08 14:27:22;;;;;;;5.50;1.50;;;;;;;;;;4787320;29;20074;-82
2024/03/08 14:29:54;;;;;;;4.00;1.60;;;;;;;;;;4788926;29;20043;-81
2024/03/08 14:32:25;;;;;;;3.60;1.48;;;;;;;;;;4786174;29;20515;-82
2024/03/08 14:34:55;;;;;;;4.28;1.40;;;;;;;;;;4784923;29;20055;-82
2024/03/08 14:37:29;;;;;;;4.15;1.67;;;;;;;;;;4787086;29;20220;-81
2024/03/08 14:39:59;;;;;;;3.42;1.40;;;;;;;;;;4787266;30;20055;-82
2024/03/08 14:42:31;;;;;;;3.75;1.20;;;;;;;;;;4795522;29;20074;-82
2024/03/08 14:45:01;;;;;;;3.45;1.60;;;;;;;;;;4791504;29;20387;-82
2024/03/08 14:47:33;;;;;;;3.38;1.38;;;;;;;;;;4796995;29;20046;-82
2024/03/08 14:50:06;;;;;;;;;;;;;;;;;;4795560;29;20051;-80
2024/03/08 14:52:39;;;;;;;3.72;1.20;;;;;;;;;;4800224;29;19933;-82
2024/03/08 14:55:14;;;;;;;3.13;1.02;;;;;;;;;;4806056;29;20054;-83
2024/03/08 14:57:47;;;;;;;3.15;1.20;;;;;;;;;;4801316;29;20057;-81
2024/03/08 15:00:34;;;;;;;3.47;1.40;;;;;;;;;;4790856;29;20047;-82
2024/03/08 15:03:06;;;;;;;4.47;1.65;;;;;;;;;;4785566;29;20526;-81
2024/03/08 15:05:42;;;;;;;2.50;1.30;;;;;;;;;;4787768;29;20495;-82
2024/03/08 15:08:19;;;;;;;3.30;1.38;;;;;;;;;;4794961;29;20043;-80
2024/03/08 15:10:58;;;;;;;3.75;1.23;;;;;;;;;;4789942;29;20043;-81
2024/03/08 15:13:41;;;;;;;3.80;1.60;;;;;;;;;;4785229;29;20051;-83
2024/03/08 15:16:18;;;;;;;5.75;1.50;;;;;;;;;;4787389;29;20040;-82
2024/03/08 15:18:48;;;;;;;4.93;1.38;;;;;;;;;;4798000;29;20043;-82
2024/03/08 15:21:20;;;;;;;;;;;;;;;;;;4801608;29;20388;-82
2024/03/08 15:23:52;;;;;;;2.95;1.10;;;;;;;;;;4786303;30;19925;-83
2024/03/08 15:26:22;;;;;;;4.93;1.42;;;;;;;;;;4788433;29;20055;-82